createdAt,value
2023-05-05T00:00:16.124Z,2.03
2023-05-05T00:02:44.748Z,2.13
2023-05-05T00:05:13.282Z,2.28
2023-05-05T00:07:42.009Z,2.50
2023-05-05T00:10:11.331Z,2.60
2023-05-05T00:12:39.810Z,3.17
2023-05-05T00:15:09.304Z,2.92
2023-05-05T00:17:39.216Z,2.92
2023-05-05T00:20:10.112Z,2.70
2023-05-05T00:22:38.762Z,2.22
2023-05-05T00:25:07.917Z,3.40
2023-05-05T00:27:37.419Z,2.40
2023-05-05T00:30:08.684Z,2.47
2023-05-05T00:32:38.707Z,2.30
2023-05-05T00:35:08.599Z,2.65
2023-05-05T00:37:37.628Z,2.20
2023-05-05T00:40:07.250Z,2.20
2023-05-05T00:42:43.286Z,2.63
2023-05-05T00:45:13.189Z,2.15
2023-05-05T00:47:44.304Z,1.58
2023-05-05T00:50:21.729Z,1.35
2023-05-05T00:52:50.772Z,1.90
2023-05-05T00:55:19.759Z,2.15
2023-05-05T00:57:49.932Z,1.95
2023-05-05T01:00:19.154Z,1.48
2023-05-05T01:02:49.094Z,2.17
2023-05-05T01:05:19.188Z,2.03
2023-05-05T01:07:58.965Z,2.10
2023-05-05T01:10:36.886Z,1.42
2023-05-05T01:13:16.233Z,1.30
2023-05-05T01:15:50.889Z,1.83
2023-05-05T01:18:28.685Z,1.58
2023-05-05T01:21:03.255Z,1.70
2023-05-05T01:23:48.955Z,2.10
2023-05-05T01:26:36.084Z,1.75
2023-05-05T01:29:25.303Z,1.80
2023-05-05T01:31:58.567Z,1.60
2023-05-05T01:34:33.547Z,3.90
2023-05-05T01:37:08.868Z,5.45
2023-05-05T01:39:38.943Z,4.75
2023-05-05T01:42:13.991Z,5.30
2023-05-05T01:44:44.783Z,16.33
2023-05-05T01:47:17.146Z,14.52
2023-05-05T01:49:47.932Z,8.20
2023-05-05T01:52:17.943Z,2.97
2023-05-05T01:54:49.237Z,3.97
2023-05-05T01:57:19.359Z,2.95
2023-05-05T01:59:47.870Z,2.08
2023-05-05T02:02:20.189Z,2.40
2023-05-05T02:04:50.696Z,2.40
2023-05-05T02:07:20.902Z,2.33
2023-05-05T02:09:50.370Z,2.17
2023-05-05T02:12:21.292Z,2.85
2023-05-05T02:14:52.373Z,2.92
2023-05-05T02:17:23.835Z,2.42
2023-05-05T02:19:53.820Z,2.05
2023-05-05T02:22:22.331Z,2.10
2023-05-05T02:24:50.681Z,2.55
2023-05-05T02:27:24.389Z,2.08
2023-05-05T02:29:58.755Z,2.00
2023-05-05T02:32:34.980Z,2.00
2023-05-05T02:35:10.967Z,2.33
2023-05-05T02:37:47.985Z,2.20
2023-05-05T02:40:22.159Z,2.60
2023-05-05T02:42:55.349Z,2.38
2023-05-05T02:45:30.174Z,2.42
2023-05-05T02:48:04.234Z,2.38
2023-05-05T02:50:36.572Z,2.92
2023-05-05T02:53:15.052Z,2.40
2023-05-05T02:55:51.820Z,2.28
2023-05-05T02:58:30.699Z,2.40
2023-05-05T03:01:08.489Z,2.40
2023-05-05T03:03:44.480Z,2.83
2023-05-05T03:06:18.749Z,2.42
2023-05-05T03:08:55.131Z,2.45
2023-05-05T03:11:28.819Z,2.30
2023-05-05T03:14:07.225Z,2.60
2023-05-05T03:16:38.126Z,2.97
2023-05-05T03:19:11.601Z,2.40
2023-05-05T03:21:41.423Z,2.45
2023-05-05T03:24:15.579Z,2.80
2023-05-05T03:26:48.527Z,3.20
2023-05-05T03:29:18.434Z,2.80
2023-05-05T03:34:16.842Z,3.17
2023-05-05T03:36:48.392Z,3.22
2023-05-05T03:39:18.950Z,4.07
2023-05-05T03:41:48.446Z,3.00
2023-05-05T03:44:17.965Z,2.65
2023-05-05T03:46:46.518Z,3.10
2023-05-05T03:49:18.022Z,3.10
2023-05-05T03:51:48.554Z,2.83
2023-05-05T03:56:45.767Z,2.55
2023-05-05T03:59:14.213Z,1.75
2023-05-05T04:04:11.530Z,2.42
2023-05-05T04:06:41.367Z,2.30
2023-05-05T04:09:12.117Z,2.30
2023-05-05T04:11:40.567Z,2.22
2023-05-05T04:16:37.680Z,2.03
2023-05-05T04:19:06.255Z,2.53
2023-05-05T04:21:34.837Z,2.47
2023-05-05T04:24:04.726Z,3.13
2023-05-05T04:26:33.148Z,2.10
2023-05-05T04:29:01.691Z,2.28
2023-05-05T04:31:32.125Z,1.70
2023-05-05T04:34:01.228Z,1.70
2023-05-05T04:36:32.705Z,1.33
2023-05-05T04:39:03.791Z,1.58
2023-05-05T04:41:34.248Z,1.73
2023-05-05T04:44:02.941Z,1.83
2023-05-05T04:46:32.276Z,1.77
2023-05-05T04:49:03.549Z,2.05
2023-05-05T04:51:42.854Z,2.17
2023-05-05T04:57:06.564Z,1.70
2023-05-05T04:59:41.354Z,2.00
2023-05-05T05:02:10.096Z,1.42
2023-05-05T05:04:38.664Z,2.17
2023-05-05T05:07:07.100Z,1.85
2023-05-05T05:09:35.631Z,1.80
2023-05-05T05:12:08.059Z,2.00
2023-05-05T05:14:38.584Z,3.15
2023-05-05T05:17:07.596Z,2.20
2023-05-05T05:19:36.170Z,1.80
2023-05-05T05:22:05.353Z,1.50
2023-05-05T05:24:36.550Z,1.67
2023-05-05T05:27:10.181Z,1.95
2023-05-05T05:29:41.064Z,1.70
2023-05-05T05:32:09.710Z,2.13
2023-05-05T05:34:41.329Z,1.52
2023-05-05T05:37:11.241Z,2.08
2023-05-05T05:39:41.921Z,2.05
2023-05-05T05:42:13.160Z,1.23
2023-05-05T05:44:42.007Z,1.52
2023-05-05T05:47:13.574Z,2.00
2023-05-05T05:49:42.111Z,1.50
2023-05-05T05:52:11.056Z,2.20
2023-05-05T05:54:40.194Z,1.17
2023-05-05T05:57:09.754Z,1.60
2023-05-05T05:59:39.749Z,1.90
2023-05-05T06:02:09.721Z,2.22
2023-05-05T06:04:41.443Z,1.25
2023-05-05T06:07:11.260Z,1.20
2023-05-05T06:09:39.747Z,1.98
2023-05-05T06:12:08.394Z,2.08
2023-05-05T06:14:37.086Z,1.83
2023-05-05T06:17:07.174Z,1.20
2023-05-05T06:19:39.396Z,1.30
2023-05-05T06:22:08.331Z,1.63
2023-05-05T06:24:37.522Z,1.80
2023-05-05T06:27:06.071Z,1.30
2023-05-05T06:29:34.493Z,2.00
2023-05-05T06:32:02.817Z,1.58
2023-05-05T06:34:32.704Z,1.42
2023-05-05T06:37:01.227Z,1.60
2023-05-05T06:39:29.582Z,1.70
2023-05-05T06:41:58.052Z,1.70
2023-05-05T06:44:26.408Z,1.05
2023-05-05T06:46:55.473Z,1.30
2023-05-05T06:49:23.982Z,1.40
2023-05-05T06:51:53.729Z,1.45
2023-05-05T06:54:22.207Z,1.25
2023-05-05T06:56:50.500Z,1.48
2023-05-05T06:59:18.917Z,1.25
2023-05-05T07:01:47.639Z,1.10
2023-05-05T07:04:16.547Z,1.45
2023-05-05T07:09:16.888Z,1.48
2023-05-05T07:11:45.615Z,1.38
2023-05-05T07:14:14.034Z,1.00
2023-05-05T07:16:42.407Z,1.10
2023-05-05T07:19:10.777Z,1.20
2023-05-05T07:21:39.910Z,1.20
2023-05-05T07:24:09.876Z,1.20
2023-05-05T07:26:39.938Z,1.13
2023-05-05T07:29:08.615Z,1.05
2023-05-05T07:31:37.008Z,1.17
2023-05-05T07:34:07.338Z,1.23
2023-05-05T07:36:35.918Z,0.98
2023-05-05T07:39:05.914Z,1.00
2023-05-05T07:41:34.878Z,1.30
2023-05-05T07:44:05.113Z,1.40
2023-05-05T07:46:33.774Z,1.60
2023-05-05T07:49:02.258Z,1.70
2023-05-05T07:51:33.271Z,1.15
2023-05-05T07:54:03.057Z,1.85
2023-05-05T07:56:31.457Z,1.20
2023-05-05T07:58:59.836Z,0.90
2023-05-05T08:01:29.658Z,1.45
2023-05-05T08:03:58.159Z,0.95
2023-05-05T08:06:28.687Z,1.48
2023-05-05T08:08:57.405Z,1.25
2023-05-05T08:11:29.457Z,1.30
2023-05-05T08:13:58.110Z,1.13
2023-05-05T08:16:26.532Z,1.48
2023-05-05T08:18:56.251Z,1.60
2023-05-05T08:21:24.590Z,1.20
2023-05-05T08:23:52.954Z,1.30
2023-05-05T08:26:22.984Z,2.05
2023-05-05T08:28:55.181Z,1.50
2023-05-05T08:31:23.838Z,1.40
2023-05-05T08:33:52.166Z,1.20
2023-05-05T08:36:22.064Z,1.30
2023-05-05T08:38:50.529Z,1.45
2023-05-05T08:41:20.127Z,1.42
2023-05-05T08:43:49.443Z,1.00
2023-05-05T08:46:18.092Z,1.30
2023-05-05T08:51:19.258Z,1.35
2023-05-05T08:53:57.715Z,1.20
2023-05-05T08:56:28.698Z,1.40
2023-05-05T08:58:58.613Z,1.33
2023-05-05T09:01:27.490Z,1.63
2023-05-05T09:03:56.975Z,1.20
2023-05-05T09:06:26.995Z,1.55
2023-05-05T09:08:59.018Z,1.40
2023-05-05T09:11:28.229Z,1.55
2023-05-05T09:13:56.947Z,1.88
2023-05-05T09:16:25.434Z,1.60
2023-05-05T09:19:02.970Z,1.55
2023-05-05T09:21:32.200Z,1.35
2023-05-05T09:24:12.320Z,1.30
2023-05-05T09:26:43.642Z,1.55
2023-05-05T09:29:19.725Z,1.60
2023-05-05T09:32:05.846Z,1.67
2023-05-05T09:34:36.399Z,1.50
2023-05-05T09:37:06.197Z,1.65
2023-05-05T09:39:36.353Z,1.80
2023-05-05T09:42:05.006Z,1.45
2023-05-05T09:44:37.633Z,1.33
2023-05-05T09:47:18.150Z,1.95
2023-05-05T09:49:59.911Z,1.80
2023-05-05T09:52:29.254Z,1.67
2023-05-05T09:54:59.204Z,1.77
2023-05-05T09:57:29.305Z,1.30
2023-05-05T09:59:59.035Z,1.50
2023-05-05T10:02:34.774Z,1.75
2023-05-05T10:05:08.352Z,1.77
2023-05-05T10:07:38.225Z,1.25
2023-05-05T10:10:10.523Z,1.60
2023-05-05T10:12:40.530Z,1.63
2023-05-05T10:15:10.660Z,0.82
2023-05-05T10:17:57.941Z,1.33
2023-05-05T10:20:36.470Z,1.65
2023-05-05T10:23:08.761Z,1.50
2023-05-05T10:25:43.681Z,1.23
2023-05-05T10:28:17.947Z,1.65
2023-05-05T10:30:50.694Z,1.30
2023-05-05T10:33:31.914Z,1.50
2023-05-05T10:36:03.431Z,1.80
2023-05-05T10:38:32.773Z,1.13
2023-05-05T10:41:03.150Z,1.50
2023-05-05T10:43:32.332Z,1.20
2023-05-05T10:46:01.717Z,1.20
2023-05-05T10:48:39.228Z,1.50
2023-05-05T10:51:38.545Z,1.40
2023-05-05T10:54:15.424Z,1.25
2023-05-05T10:56:45.619Z,1.30
2023-05-05T10:59:41.665Z,1.17
2023-05-05T11:02:25.182Z,1.58
2023-05-05T11:05:15.312Z,1.40
2023-05-05T11:07:44.242Z,1.75
2023-05-05T11:10:13.896Z,1.75
2023-05-05T11:13:15.946Z,1.70
2023-05-05T11:15:45.967Z,1.63
2023-05-05T11:18:30.764Z,1.27
2023-05-05T11:21:17.012Z,1.48
2023-05-05T11:23:47.826Z,1.30
2023-05-05T11:26:17.627Z,2.08
2023-05-05T11:29:04.833Z,1.30
2023-05-05T11:31:34.934Z,1.50
2023-05-05T11:34:26.262Z,1.60
2023-05-05T11:37:01.674Z,1.35
2023-05-05T11:39:39.457Z,1.48
2023-05-05T11:42:32.003Z,1.30
2023-05-05T11:45:00.900Z,1.08
2023-05-05T11:50:00.006Z,1.15
2023-05-05T11:52:28.723Z,1.20
2023-05-05T11:55:03.872Z,1.35
2023-05-05T11:57:32.751Z,1.13
2023-05-05T12:00:02.560Z,1.40
2023-05-05T12:02:37.307Z,1.42
2023-05-05T12:05:06.790Z,1.00
2023-05-05T12:07:35.202Z,1.75
2023-05-05T12:10:03.674Z,1.20
2023-05-05T12:12:37.182Z,1.27
2023-05-05T12:15:06.612Z,1.10
2023-05-05T12:17:42.627Z,1.20
2023-05-05T12:20:12.830Z,1.30
2023-05-05T12:22:41.917Z,1.10
2023-05-05T12:25:11.177Z,1.27
2023-05-05T12:27:39.849Z,1.30
2023-05-05T12:30:16.829Z,1.50
2023-05-05T12:32:47.269Z,1.20
2023-05-05T12:35:16.193Z,1.50
2023-05-05T12:43:00.235Z,1.27
2023-05-05T12:45:31.328Z,1.15
2023-05-05T12:48:01.287Z,1.55
2023-05-05T12:50:33.518Z,1.05
2023-05-05T12:53:02.021Z,1.75
2023-05-05T12:55:48.414Z,1.30
2023-05-05T12:58:16.855Z,1.40
2023-05-05T13:00:45.562Z,1.10
2023-05-05T13:05:50.263Z,1.17
2023-05-05T13:08:18.670Z,1.77
2023-05-05T13:10:59.417Z,1.00
2023-05-05T13:13:27.875Z,1.38
2023-05-05T13:15:56.292Z,1.27
2023-05-05T13:18:26.155Z,0.90
2023-05-05T13:20:54.631Z,1.40
2023-05-05T13:23:24.119Z,1.70
2023-05-05T13:25:54.299Z,1.15
2023-05-05T13:28:22.704Z,1.50
2023-05-05T13:30:51.092Z,1.30
2023-05-05T13:33:19.457Z,1.50
2023-05-05T13:35:49.349Z,1.35
2023-05-05T13:38:17.784Z,1.50
2023-05-05T13:40:46.261Z,1.60
2023-05-05T13:43:14.708Z,1.58
2023-05-05T13:45:43.234Z,1.40
2023-05-05T13:48:11.796Z,0.75
2023-05-05T13:50:40.223Z,1.25
2023-05-05T13:53:10.159Z,1.30
2023-05-05T13:55:38.684Z,0.95
2023-05-05T13:58:08.804Z,1.17
2023-05-05T14:00:38.008Z,1.27
2023-05-05T14:03:06.856Z,1.00
2023-05-05T14:08:06.120Z,1.33
2023-05-05T14:10:36.122Z,1.60
2023-05-05T14:13:07.469Z,1.20
2023-05-05T14:15:37.154Z,1.20
2023-05-05T14:18:05.846Z,1.02
2023-05-05T14:20:34.631Z,1.73
2023-05-05T14:23:02.993Z,1.42
2023-05-05T14:25:31.457Z,1.40
2023-05-05T14:28:01.302Z,1.77
2023-05-05T14:30:29.785Z,1.50
2023-05-05T14:32:58.252Z,1.42
2023-05-05T14:35:26.800Z,1.23
2023-05-05T14:37:55.248Z,1.02
2023-05-05T14:40:23.803Z,1.33
2023-05-05T14:42:52.267Z,1.60
2023-05-05T14:45:22.182Z,1.80
2023-05-05T14:47:50.823Z,1.42
2023-05-05T14:50:19.273Z,1.33
2023-05-05T14:52:47.782Z,1.20
2023-05-05T14:55:16.334Z,1.10
2023-05-05T15:00:14.130Z,1.08
2023-05-05T15:02:44.169Z,1.60
2023-05-05T15:05:13.781Z,0.98
2023-05-05T15:07:42.251Z,1.10
2023-05-05T15:10:11.569Z,1.05
2023-05-05T15:12:40.227Z,1.50
2023-05-05T15:15:12.758Z,1.20
2023-05-05T15:17:41.949Z,1.63
2023-05-05T15:20:13.105Z,1.50
2023-05-05T15:22:41.872Z,1.40
2023-05-05T15:25:13.329Z,1.80
2023-05-05T15:27:42.127Z,1.38
2023-05-05T15:30:11.543Z,1.55
2023-05-05T15:32:40.062Z,1.08
2023-05-05T15:35:09.716Z,1.40
2023-05-05T15:37:39.698Z,1.60
2023-05-05T15:40:12.028Z,0.80
2023-05-05T15:42:40.619Z,1.30
2023-05-05T15:45:13.164Z,1.30
2023-05-05T15:47:41.888Z,1.25
2023-05-05T15:50:11.044Z,1.30
2023-05-05T15:52:41.060Z,1.80
2023-05-05T15:55:11.216Z,1.52
2023-05-05T15:57:40.569Z,1.48
2023-05-05T16:00:10.505Z,1.60
2023-05-05T16:02:39.118Z,1.50
2023-05-05T16:05:08.395Z,1.38
2023-05-05T16:07:37.071Z,1.25
2023-05-05T16:10:08.334Z,1.30
2023-05-05T16:12:36.874Z,1.65
2023-05-05T16:15:06.162Z,1.13
2023-05-05T16:17:36.556Z,1.27
2023-05-05T16:20:09.188Z,1.30
2023-05-05T16:22:37.714Z,1.20
2023-05-05T16:25:09.031Z,1.60
2023-05-05T16:27:37.832Z,1.48
2023-05-05T16:30:07.357Z,1.80
2023-05-05T16:32:35.986Z,2.20
2023-05-05T16:35:04.439Z,2.22
2023-05-05T16:37:33.002Z,1.77
2023-05-05T16:40:04.489Z,1.70
2023-05-05T16:42:34.365Z,2.30
2023-05-05T16:45:02.849Z,1.60
2023-05-05T16:50:00.022Z,1.45
2023-05-05T16:52:28.608Z,1.45
2023-05-05T16:54:57.356Z,1.73
2023-05-05T16:59:57.635Z,1.70
2023-05-05T17:02:26.296Z,1.70
2023-05-05T17:04:54.843Z,1.85
2023-05-05T17:07:23.487Z,1.58
2023-05-05T17:09:52.134Z,1.40
2023-05-05T17:12:20.711Z,1.40
2023-05-05T17:14:49.223Z,1.48
2023-05-05T17:17:19.045Z,1.50
2023-05-05T17:19:47.699Z,1.40
2023-05-05T17:22:16.739Z,1.55
2023-05-05T17:24:45.359Z,1.40
2023-05-05T17:27:14.079Z,2.20
2023-05-05T17:29:42.554Z,1.50
2023-05-05T17:32:12.412Z,1.70
2023-05-05T17:34:44.557Z,1.83
2023-05-05T17:37:13.112Z,1.95
2023-05-05T17:39:41.612Z,2.75
2023-05-05T17:42:10.109Z,1.80
2023-05-05T17:44:38.582Z,2.17
2023-05-05T17:47:07.859Z,2.00
2023-05-05T17:49:38.815Z,3.00
2023-05-05T17:52:08.693Z,2.13
2023-05-05T17:54:40.092Z,2.45
2023-05-05T17:57:08.626Z,3.22
2023-05-05T17:59:37.617Z,3.42
2023-05-05T18:02:08.934Z,3.00
2023-05-05T18:04:37.939Z,2.90
2023-05-05T18:07:06.602Z,2.80
2023-05-05T18:12:08.240Z,2.67
2023-05-05T18:14:36.885Z,2.83
2023-05-05T18:17:05.520Z,3.40
2023-05-05T18:19:34.143Z,3.05
2023-05-05T18:22:02.852Z,4.00
2023-05-05T18:24:36.286Z,3.17
2023-05-05T18:27:07.390Z,3.15
2023-05-05T18:29:37.586Z,3.70
2023-05-05T18:32:09.523Z,3.33
2023-05-05T18:34:38.211Z,3.40
2023-05-05T18:37:06.774Z,3.50
2023-05-05T18:39:39.440Z,3.90
2023-05-05T18:42:13.059Z,4.22
2023-05-05T18:44:43.114Z,4.40
2023-05-05T18:47:12.032Z,3.45
2023-05-05T18:52:08.836Z,4.57
2023-05-05T18:54:38.682Z,4.65
2023-05-05T18:57:07.636Z,4.90
2023-05-05T18:59:36.096Z,4.15
2023-05-05T19:02:04.687Z,3.88
2023-05-05T19:04:36.572Z,3.92
2023-05-05T19:07:05.519Z,4.05
2023-05-05T19:09:37.466Z,4.22
2023-05-05T19:12:08.067Z,3.85
2023-05-05T19:14:39.285Z,4.70
2023-05-05T19:17:08.316Z,4.80
2023-05-05T19:19:38.361Z,5.55
2023-05-05T19:22:06.988Z,4.70
2023-05-05T19:24:35.897Z,4.38
2023-05-05T19:27:04.658Z,4.80
2023-05-05T19:29:36.254Z,5.32
2023-05-05T19:32:05.095Z,5.50
2023-05-05T19:34:33.905Z,5.20
2023-05-05T19:39:30.708Z,4.35
2023-05-05T19:41:59.109Z,6.22
2023-05-05T19:44:27.605Z,5.80
2023-05-05T19:46:57.582Z,4.15
2023-05-05T19:49:26.392Z,2.83
2023-05-05T19:54:27.617Z,4.60
2023-05-05T19:56:57.401Z,3.17
2023-05-05T19:59:26.095Z,3.08
2023-05-05T20:01:54.559Z,3.50
2023-05-05T20:06:52.982Z,3.05
2023-05-05T20:09:21.807Z,3.35
2023-05-05T20:14:19.515Z,3.22
2023-05-05T20:16:48.031Z,4.68
2023-05-05T20:19:17.066Z,4.00
2023-05-05T20:21:47.139Z,6.22
2023-05-05T20:24:15.565Z,5.15
2023-05-05T20:26:44.010Z,4.85
2023-05-05T20:29:12.969Z,4.22
2023-05-05T20:31:41.587Z,4.75
2023-05-05T20:34:10.069Z,3.90
2023-05-05T20:36:38.542Z,4.93
2023-05-05T20:39:08.799Z,3.65
2023-05-05T20:41:40.275Z,5.22
2023-05-05T20:44:09.466Z,4.85
2023-05-05T20:46:37.939Z,4.28
2023-05-05T20:49:06.322Z,4.43
2023-05-05T20:51:35.240Z,4.50
2023-05-05T20:54:07.587Z,3.65
2023-05-05T20:56:36.076Z,3.03
2023-05-05T20:59:06.650Z,3.15
2023-05-05T21:01:37.842Z,3.33
2023-05-05T21:04:06.580Z,2.53
2023-05-05T21:09:03.213Z,3.05
2023-05-05T21:11:33.162Z,2.83
2023-05-05T21:14:04.505Z,2.65
2023-05-05T21:16:33.227Z,2.13
2023-05-05T21:19:03.963Z,2.85
2023-05-05T21:21:33.168Z,3.22
2023-05-05T21:24:01.719Z,2.97
2023-05-05T21:26:30.162Z,2.97
2023-05-05T21:29:00.122Z,2.58
2023-05-05T21:31:28.710Z,2.47
2023-05-05T21:33:57.160Z,2.42
2023-05-05T21:36:25.651Z,2.47
2023-05-05T21:38:55.849Z,2.90
2023-05-05T21:41:25.213Z,2.25
2023-05-05T21:43:57.862Z,2.38
2023-05-05T21:46:28.039Z,2.58
2023-05-05T21:48:56.582Z,2.17
2023-05-05T21:51:27.729Z,1.92
2023-05-05T21:53:56.210Z,2.10
2023-05-05T21:56:24.605Z,2.10
2023-05-05T21:58:53.125Z,2.78
2023-05-05T22:01:21.624Z,2.30
2023-05-05T22:06:20.585Z,2.45
2023-05-05T22:08:49.757Z,2.20
2023-05-05T22:11:20.631Z,1.88
2023-05-05T22:13:49.053Z,2.40
2023-05-05T22:16:18.580Z,2.00
2023-05-05T22:18:47.236Z,2.40
2023-05-05T22:21:19.973Z,2.97
2023-05-05T22:23:48.623Z,2.47
2023-05-05T22:26:17.001Z,2.08
2023-05-05T22:28:45.496Z,1.67
2023-05-05T22:31:14.075Z,2.03
2023-05-05T22:33:42.556Z,2.42
2023-05-05T22:36:11.726Z,2.15
2023-05-05T22:38:41.556Z,1.98
2023-05-05T22:41:10.166Z,1.70
2023-05-05T22:43:39.034Z,1.67
2023-05-05T22:46:07.578Z,1.90
2023-05-05T22:48:36.111Z,1.67
2023-05-05T22:53:32.923Z,1.55
2023-05-05T22:56:02.824Z,1.73
2023-05-05T22:58:31.236Z,1.88
2023-05-05T23:00:59.779Z,1.42
2023-05-05T23:03:31.205Z,1.77
2023-05-05T23:05:59.694Z,1.63
2023-05-05T23:08:28.135Z,1.40
2023-05-05T23:10:57.394Z,1.38
2023-05-05T23:13:27.313Z,1.50
2023-05-05T23:15:55.900Z,1.48
2023-05-05T23:18:24.317Z,1.10
2023-05-05T23:20:52.775Z,1.35
2023-05-05T23:23:21.496Z,1.40
2023-05-05T23:28:20.404Z,1.23
2023-05-05T23:30:50.285Z,1.58
2023-05-05T23:33:19.502Z,1.38
2023-05-05T23:35:48.605Z,1.52
2023-05-05T23:38:17.160Z,1.48
2023-05-05T23:40:45.584Z,1.40
2023-05-05T23:43:14.084Z,1.00
2023-05-05T23:48:13.163Z,1.63
2023-05-05T23:50:41.582Z,1.38
2023-05-05T23:53:10.547Z,1.58
2023-05-05T23:55:38.927Z,2.40
2023-05-05T23:58:07.407Z,1.30
